Tiempo atmosférico en la estación meteorológica de Pedrosa Del Príncipe, Burgos (771 m.)



Fecha
DESCASC
Temp. máxima en grados centígrados (hora)
DESCASC
Temp. mínima en grados centígrados (hora)
DESCASC
Temp. media en grados centígrados
DESCASC
Racha de viento máxima en m/sg (hora)
DESCASC
Velocidad máxima media en intervalos de 10 minutos(hora)
DESCASC
Precipitaciones diarias en mm
DESCASC
Precipitaciones de 00:00 a 06:00 en mm
DESCASC
Precipitaciones de 06:00 a 12:00 en mm
DESCASC
Precipitaciones de 12:00 a 18:00 en mm
DESCASC
Precipitaciones de 18:00 a 24:00 en mm
DESCASC
15-08-2019 29.3 (17:10) 14.3 (07:50) 21.8 11.11 (21:10) 5.83 (20:20) 0 0 0 0 0
14-08-2019 31.1 (18:30) 7.7 (00:00) 19.4 6.67 (21:40) 3.61 (21:50) 0 0 0 0 0
13-08-2019 25.5 (19:00) 8.2 (00:00) 16.8 8.33 (00:20) 5.28 (00:20) 0 0 0 0 0
12-08-2019 22.1 (16:30) 8.2 (00:00) 15.2 10 (21:30) 5.28 (21:50) 0 0 0 0 0
11-08-2019 24.4 (18:10) 12.3 (00:00) 18.3 12.5 (20:30) 6.67 (21:30) 4.2 4 0.2 0 0
10-08-2019 27.9 (17:50) 12.3 (00:00) 20.1 10.28 (21:50) 5.83 (21:00) 0 0 0 0 0
09-08-2019 27.1 (17:20) 16.1 (00:00) 21.6 14.17 (17:10) 8.33 (18:00) 0 0 0 0 0
08-08-2019 30.6 (18:10) 16.7 (00:00) 23.7 10.83 (19:30) 6.39 (19:50) 0 0 0 0 0
07-08-2019 27.9 (14:00) 15.4 (00:00) 21.6 11.11 (16:40) 7.22 (16:40) 0.4 0 0 0 0.4
06-08-2019 30.9 (17:30) 12.7 (00:00) 21.8 10.28 (21:10) 5.56 (22:50) 0.2 0 0 0 0.2
05-08-2019 33.5 (17:50) 13.7 (00:00) 23.6 8.61 (23:10) 5 (00:20) 0 0 0 0 0
04-08-2019 33.1 (17:20) 15.2 (00:00) 24.1 9.17 (21:30) 5 (21:30) 0 0 0 0 0
03-08-2019 34.7 (18:00) 13.5 (00:00) 24.1 9.72 (23:30) 6.11 (22:40) 0 0 0 0 0
02-08-2019 32.2 (17:50) 12.5 (00:00) 22.4 8.61 (20:50) 5 (21:00) 0 0 0 0 0
01-08-2019 29.2 (16:20) 13.4 (00:00) 21.3 10.56 (21:00) 6.11 (21:00) 1.6 1.6 0 0 0
31-07-2019 26.5 (16:50) 9.4 (00:00) 17.9 9.17 (19:30) 5.28 (20:40) 0 0 0 0 0
30-07-2019 24.1 (17:20) 10.9 (00:00) 17.5 10.28 (19:10) 5.28 (19:30) 0 0 0 0 0
29-07-2019 27.5 (16:50) 9.5 (00:00) 18.5 11.39 (15:10) 6.67 (15:20) 0 0 0 0 0
28-07-2019 25.9 (19:30) 7.6 (00:00) 16.7 5.83 (19:10) 2.78 (19:20) 0 0 0 0 0
27-07-2019 18 (17:00) 11.8 (00:00) 14.9 10 (17:50) 5.83 (17:30) 5.2 0 0 5.2 0
26-07-2019 25.4 (17:20) 15.2 (00:00) 20.3 10.83 (18:10) 6.11 (19:40) 0 0 0 0 0
25-07-2019 34.2 (16:30) 16.5 (00:00) 25.4 12.78 (16:00) 5.83 (14:40) 0 0 0 0 0
24-07-2019 35.2 (18:10) 15.5 (00:00) 25.4 13.61 (00:10) 8.33 (00:10) 1.6 1.4 0.2 0 0
23-07-2019 35.7 (17:20) 17.6 (00:00) 26.7 15.56 (18:40) 6.67 (18:40) 7.2 0 0 0 7.2
22-07-2019 38.4 (15:50) 16.7 (00:00) 27.6 15 (20:00) 7.5 (20:00) 0 0 0 0 0
21-07-2019 34.6 (17:30) 15.4 (00:00) 25 9.72 (02:40) 6.11 (21:30) 0 0 0 0 0
20-07-2019 34 (17:20) 13.9 (00:00) 23.9 10.83 (20:00) 6.11 (20:10) 0 0 0 0 0
19-07-2019 34.6 (17:20) 11.7 (00:00) 23.1 9.17 (16:10) 4.17 (16:20) 0 0 0 0 0

Gráficas

Temp. máximas Temp. mínimas Temp. medias Precipitaciones Rachas de viento máximas Velocidades máximas media en intervalos de 10 minutos

Datos horarios

Fecha y hora oficial Temperatura (ºC) Velocidad del viento (km/h) Dirección del viento Racha (km/h) Dirección de racha Precipitación (mm) Presión (hPa) Tendencia (hPa) Humedad (%)
2019-08-17 23:00:00 21.9 5 Sudoeste 9 Sudoeste 0 -- -- 45
2019-08-17 22:00:00 24.9 6 Sudoeste 10 Sudoeste 0 -- -- 35
2019-08-17 21:00:00 28.8 3 Sudoeste 21 Oeste 0 -- -- 33
2019-08-17 20:00:00 31.7 12 Oeste 30 Oeste 0 -- -- 23
2019-08-17 19:00:00 32.8 15 Oeste 27 Oeste 0 -- -- 22
2019-08-17 18:00:00 33.4 15 Oeste 31 Oeste 0 -- -- 20
2019-08-17 17:00:00 33.5 11 Oeste 36 Oeste 0 -- -- 23
2019-08-17 16:00:00 32.6 12 Noroeste 29 Oeste 0 -- -- 26
2019-08-17 15:00:00 31.8 12 Oeste 26 Sudoeste 0 -- -- 24
2019-08-17 14:00:00 30.4 11 Sudoeste 23 Sudoeste 0 -- -- 27
2019-08-17 13:00:00 28.3 9 Oeste 18 Oeste 0 -- -- 32
2019-08-17 12:00:00 25.4 7 Oeste 15 Noroeste 0 -- -- 42
2019-08-17 11:00:00 21.7 2 Sur 8 Oeste 0 -- -- 53
2019-08-17 10:00:00 17.9 3 Oeste 8 Oeste 0 -- -- 66
2019-08-17 09:00:00 13.7 2 Oeste 5 Sudoeste 0 -- -- 79
2019-08-17 08:00:00 10.1 0 Calma 5 Sudoeste 0 -- -- 88
2019-08-17 07:00:00 10 2 Nordeste 5 Nordeste 0 -- -- 85
2019-08-17 06:00:00 11.3 2 Nordeste 4 Este 0 -- -- 84
2019-08-17 05:00:00 13 2 Sudeste 7 Sudoeste 0 -- -- 79
2019-08-17 04:00:00 14.5 0 Calma 6 Oeste 0 -- -- 78
2019-08-17 03:00:00 16.4 6 Sudeste 10 Sudeste 0 -- -- 70
2019-08-17 02:00:00 17.6 4 Norte 15 Este 0 -- -- 67
2019-08-17 01:00:00 18.6 7 Norte 22 Norte 0 -- -- 65
2019-08-17 00:00:00 20.3 9 Nordeste 17 Nordeste 0 -- -- 61
2019-08-16 23:00:00 21.2 9 Este 20 Este 0 -- -- 50
2019-08-16 22:00:00 21.9 0 Calma 4 Sur 0 -- -- 51
2019-08-16 21:00:00 28.3 4 Oeste 14 Oeste 0 -- -- 32
2019-08-16 20:00:00 31.7 8 Oeste 21 Oeste 0 -- -- 27
2019-08-16 19:00:00 32.8 10 Oeste 24 Oeste 0 -- -- 26
2019-08-16 18:00:00 33.1 11 Oeste 27 Oeste 0 -- -- 27
2019-08-16 17:00:00 32.9 14 Oeste 35 Oeste 0 -- -- 27
2019-08-16 16:00:00 32.5 14 Noroeste 31 Oeste 0 -- -- 28
2019-08-16 15:00:00 32 12 Sudoeste 22 Sudoeste 0 -- -- 30
2019-08-16 14:00:00 30.7 7 Sur 18 Oeste 0 -- -- 34
2019-08-16 13:00:00 29.1 5 Noroeste 12 Oeste 0 -- -- 36
2019-08-16 12:00:00 26.4 3 Norte 9 Norte 0 -- -- 44
2019-08-16 11:00:00 22.9 3 Nordeste 6 Norte 0 -- -- 53
2019-08-16 10:00:00 18.5 3 Nordeste 8 Nordeste 0 -- -- 66
2019-08-16 09:00:00 15.3 4 Nordeste 10 Este 0 -- -- 79
2019-08-16 08:00:00 11.9 4 Nordeste 10 Este 0 -- -- 89
2019-08-16 07:00:00 12.3 5 Este 13 Este 0 -- -- 87
2019-08-16 06:00:00 12.6 5 Nordeste 9 Nordeste 0 -- -- 86
2019-08-16 05:00:00 13.1 0 Calma 12 Este 0 -- -- 83
2019-08-16 04:00:00 13.9 7 Este 12 Este 0 -- -- 82
2019-08-16 03:00:00 14.8 3 Noroeste 13 Este 0 -- -- 78
2019-08-16 02:00:00 16.3 9 Este 24 Nordeste 0 -- -- 73
2019-08-16 01:00:00 17 11 Nordeste 24 Nordeste 0 -- -- 71
2019-08-16 00:00:00 18.1 10 Este 24 Este 0 -- -- 67
2019-08-15 23:00:00 19.3 12 Nordeste 30 Este 0 -- -- 64
2019-08-15 22:00:00 21.1 18 Este 40 Nordeste 0 -- -- 58
2019-08-15 21:00:00 23.8 19 Este 34 Este 0 -- -- 48
2019-08-15 20:00:00 27.5 12 Este 26 Este 0 -- -- 37
2019-08-15 19:00:00 28.4 12 Nordeste 24 Norte 0 -- -- 36
2019-08-15 18:00:00 29 6 Norte 21 Nordeste 0 -- -- 35
2019-08-15 17:00:00 28.9 9 Nordeste 21 Norte 0 -- -- 38
2019-08-15 16:00:00 28.7 10 Nordeste 22 Nordeste 0 -- -- 36
2019-08-15 15:00:00 28.2 8 Este 23 Nordeste 0 -- -- 38
2019-08-15 14:00:00 27 7 Este 18 Nordeste 0 -- -- 42
2019-08-15 13:00:00 25.3 5 Nordeste 20 Este 0 -- -- 48
2019-08-15 12:00:00 23.6 8 Nordeste 18 Nordeste 0 -- -- 54
2019-08-15 11:00:00 21.7 9 Nordeste 26 Este 0 -- -- 62
2019-08-15 10:00:00 19.9 13 Nordeste 25 Nordeste 0 -- -- 68
2019-08-15 09:00:00 17.9 7 Nordeste 14 Nordeste 0 -- -- 79
2019-08-15 08:00:00 14.3 3 Nordeste 12 Este 0 -- -- 89
2019-08-15 07:00:00 15.6 6 Este 18 Este 0 -- -- 85
2019-08-15 06:00:00 15 4 Nordeste 17 Este 0 -- -- 87
2019-08-15 05:00:00 16.1 13 Este 23 Este 0 -- -- 82
2019-08-15 04:00:00 16.4 10 Este 24 Nordeste 0 -- -- 81
2019-08-15 03:00:00 16.3 10 Nordeste 22 Este 0 -- -- 76
2019-08-15 02:00:00 17.1 12 Nordeste 27 Este 0 -- -- 72
2019-08-15 01:00:00 18 10 Nordeste 27 Nordeste 0 -- -- 68
2019-08-15 00:00:00 19.5 13 Nordeste 24 Nordeste 0 -- -- 62
2019-08-14 23:00:00 21.4 10 Nordeste 21 Este 0 -- -- 54
2019-08-14 22:00:00 23.4 11 Nordeste 24 Nordeste 0 -- -- 50
2019-08-14 21:00:00 27.7 4 Sudoeste 13 Sudoeste 0 -- -- 37
2019-08-14 20:00:00 30.4 5 Oeste 15 Oeste 0 -- -- 30
2019-08-14 19:00:00 30.9 6 Oeste 19 Noroeste 0 -- -- 29
2019-08-14 18:00:00 31 8 Noroeste 17 Oeste 0 -- -- 31
2019-08-14 17:00:00 30.4 8 Oeste 18 Oeste 0 -- -- 29
2019-08-14 16:00:00 29.5 9 Oeste 21 Oeste 0 -- -- 30
2019-08-14 15:00:00 28.6 7 Oeste 22 Noroeste 0 -- -- 32
2019-08-14 14:00:00 27.5 10 Oeste 19 Oeste 0 -- -- 30
2019-08-14 13:00:00 25.7 8 Sudoeste 15 Sudoeste 0 -- -- 32
2019-08-14 12:00:00 23.1 4 Noroeste 13 Noroeste 0 -- -- 41
2019-08-14 11:00:00 19.9 5 Oeste 9 Oeste 0 -- -- 52
2019-08-14 10:00:00 16.4 3 Este 6 Este 0 -- -- 62
2019-08-14 09:00:00 11.9 3 Nordeste 6 Nordeste 0 -- -- 84
2019-08-14 08:00:00 7.9 3 Nordeste 8 Sudeste 0 -- -- 91
2019-08-14 07:00:00 7.7 0 Calma 3 Noroeste 0 -- -- 89
2019-08-14 06:00:00 8.5 0 Calma 5 Nordeste 0 -- -- 89
2019-08-14 05:00:00 9 3 Este 4 Nordeste 0 -- -- 86
2019-08-14 04:00:00 10 2 Noroeste 4 Noroeste 0 -- -- 85
2019-08-14 03:00:00 10.9 0 Calma 6 Nordeste 0 -- -- 81
2019-08-14 02:00:00 12.8 0 Calma 12 Este 0 -- -- 74
2019-08-14 01:00:00 14.2 2 Nordeste 14 Nordeste 0 -- -- 70
2019-08-14 00:00:00 15.6 9 Nordeste 20 Este 0 -- -- 62
2019-08-13 23:00:00 16.3 6 Nordeste 14 Nordeste 0 -- -- 56
2019-08-13 22:00:00 17.3 3 Nordeste 6 Nordeste 0 -- -- 53
2019-08-13 21:00:00 21.5 4 Nordeste 9 Norte 0 -- -- 40
2019-08-13 20:00:00 24.2 5 Nordeste 14 Nordeste 0 -- -- 34
2019-08-13 19:00:00 25.5 6 Noroeste 19 Norte 0 -- -- 31
2019-08-13 18:00:00 25.4 9 Noroeste 17 Norte 0 -- -- 30
2019-08-13 17:00:00 25.3 6 Noroeste 21 Norte 0 -- -- 26
2019-08-13 16:00:00 24.6 5 Este 21 Norte 0 -- -- 30
2019-08-13 15:00:00 23.2 6 Norte 16 Nordeste 0 -- -- 36
2019-08-13 14:00:00 21.9 6 Este 21 Este 0 -- -- 38
2019-08-13 13:00:00 20.2 6 Sudeste 19 Este 0 -- -- 42
2019-08-13 12:00:00 18.7 9 Este 18 Este 0 -- -- 47
2019-08-13 11:00:00 16.5 9 Nordeste 23 Este 0 -- -- 56
2019-08-13 10:00:00 14.5 13 Nordeste 24 Nordeste 0 -- -- 63
2019-08-13 09:00:00 11.5 7 Nordeste 16 Este 0 -- -- 78
2019-08-13 08:00:00 8.4 6 Este 12 Nordeste 0 -- -- 88
2019-08-13 07:00:00 8.6 5 Nordeste 10 Nordeste 0 -- -- 86
2019-08-13 06:00:00 10.2 3 Este 17 Nordeste 0 -- -- 80
2019-08-13 05:00:00 11.1 7 Nordeste 19 Nordeste 0 -- -- 77
2019-08-13 04:00:00 11.2 10 Nordeste 25 Este 0 -- -- 77
2019-08-13 03:00:00 11.3 9 Nordeste 23 Sudeste 0 -- -- 78
2019-08-13 02:00:00 12 9 Este 24 Nordeste 0 -- -- 71
2019-08-13 01:00:00 12.3 14 Nordeste 30 Nordeste 0 -- -- 72
2019-08-13 00:00:00 12.8 15 Nordeste 26 Nordeste 0 -- -- 68
2019-08-12 23:00:00 13.3 15 Nordeste 30 Nordeste 0 -- -- 65
2019-08-12 22:00:00 14.4 19 Nordeste 36 Nordeste 0 -- -- 60
2019-08-12 21:00:00 15.8 15 Nordeste 31 Nordeste 0 -- -- 57
2019-08-12 20:00:00 17.3 14 Nordeste 31 Norte 0 -- -- 52
2019-08-12 19:00:00 19.9 15 Nordeste 29 Nordeste 0 -- -- 44
2019-08-12 18:00:00 21.2 12 Nordeste 27 Nordeste 0 -- -- 40
2019-08-12 17:00:00 21.1 18 Nordeste 33 Nordeste 0 -- -- 39
2019-08-12 16:00:00 21.1 15 Nordeste 28 Nordeste 0 -- -- 42
2019-08-12 15:00:00 20.4 11 Norte 24 Norte 0 -- -- 40
2019-08-12 14:00:00 20.1 8 Norte 19 Este 0 -- -- 44
2019-08-12 13:00:00 18.9 8 Nordeste 17 Nordeste 0 -- -- 49
2019-08-12 12:00:00 17.5 5 Nordeste 13 Noroeste 0 -- -- 53
2019-08-12 11:00:00 15.4 4 Nordeste 13 Este 0 -- -- 61
2019-08-12 10:00:00 13.3 3 Nordeste 6 Este 0 -- -- 72
2019-08-12 09:00:00 10.4 3 Sudoeste 5 Sudoeste 0 -- -- 86
2019-08-12 08:00:00 8.2 0 Calma 4 Oeste 0 -- -- 90
2019-08-12 07:00:00 8.8 0 Calma 5 Norte 0 -- -- 84
2019-08-12 06:00:00 9.6 0 Calma 6 Sudeste 0 -- -- 86
2019-08-12 05:00:00 10.3 2 Nordeste 5 Este 0 -- -- 82
2019-08-12 04:00:00 10.9 5 Este 12 Nordeste 0 -- -- 80
2019-08-12 03:00:00 11.2 6 Nordeste 17 Nordeste 0 -- -- 78
2019-08-12 02:00:00 11.9 10 Nordeste 21 Nordeste 0 -- -- 77
2019-08-12 01:00:00 12.1 12 Nordeste 24 Nordeste 0 -- -- 77
2019-08-12 00:00:00 12.3 6 Nordeste 25 Nordeste 0 -- -- 76
2019-08-11 23:00:00 13.1 15 Nordeste 39 Nordeste 0 -- -- 71
2019-08-11 22:00:00 13.9 19 Nordeste 42 Nordeste 0 -- -- 66
2019-08-11 21:00:00 15.4 17 Nordeste 45 Nordeste 0 -- -- 67
2019-08-11 20:00:00 18.4 19 Nordeste 34 Nordeste 0 -- -- 62
2019-08-11 19:00:00 24 11 Oeste 23 Oeste 0 -- -- 36
2019-08-11 18:00:00 24.2 11 Oeste 31 Oeste 0 -- -- 37
2019-08-11 17:00:00 23.7 12 Oeste 32 Sudoeste 0 -- -- 40
2019-08-11 16:00:00 22.6 17 Sudoeste 30 Oeste 0 -- -- 40
2019-08-11 15:00:00 21.5 14 Oeste 27 Oeste 0 -- -- 51
2019-08-11 14:00:00 21.7 9 Oeste 19 Oeste 0 -- -- 57
2019-08-11 13:00:00 20.3 8 Oeste 18 Oeste 0 -- -- 62
2019-08-11 12:00:00 19.2 7 Oeste 16 Oeste 0 -- -- 66
2019-08-11 11:00:00 18.4 4 Oeste 10 Oeste 0 -- -- 69
2019-08-11 10:00:00 16.6 4 Este 16 Este 0 -- -- 79
2019-08-11 09:00:00 14.2 4 Nordeste 8 Nordeste 0 -- -- 91
2019-08-11 08:00:00 13.1 0 Calma 10 Este 0 -- -- 93
2019-08-11 07:00:00 12.7 6 Este 15 Este 0.2 -- -- 92
2019-08-11 06:00:00 13.1 3 Nordeste 8 Norte 1.4 -- -- 90
2019-08-11 05:00:00 13 4 Norte 17 Nordeste 1.4 -- -- 90
2019-08-11 04:00:00 13.6 8 Nordeste 17 Nordeste 1.2 -- -- 86
2019-08-11 03:00:00 14.9 10 Nordeste 23 Este 0 -- -- 76
2019-08-11 02:00:00 15 10 Nordeste 24 Nordeste 0 -- -- 73
2019-08-11 01:00:00 14.8 11 Nordeste 29 Nordeste 0 -- -- 76
2019-08-11 00:00:00 15 16 Nordeste 29 Este 0 -- -- 75
2019-08-10 23:00:00 15.1 16 Nordeste 33 Nordeste 0 -- -- 75
2019-08-10 22:00:00 16.8 18 Nordeste 37 Nordeste 0 -- -- 71
2019-08-10 21:00:00 20.5 21 Nordeste 37 Nordeste 0 -- -- 60
2019-08-10 20:00:00 27 4 Noroeste 13 Oeste 0 -- -- 33
2019-08-10 19:00:00 27 6 Noroeste 19 Oeste 0 -- -- 35
2019-08-10 18:00:00 27.9 4 Noroeste 21 Oeste 0 -- -- 33
2019-08-10 17:00:00 27.3 8 Sur 17 Oeste 0 -- -- 31
2019-08-10 16:00:00 26.7 8 Oeste 20 Oeste 0 -- -- 32
2019-08-10 15:00:00 25.5 5 Sudoeste 21 Oeste 0 -- -- 35
2019-08-10 14:00:00 24.5 9 Oeste 22 Oeste 0 -- -- 36
2019-08-10 13:00:00 22.7 8 Oeste 19 Oeste 0 -- -- 37
2019-08-10 12:00:00 21.5 5 Oeste 19 Oeste 0 -- -- 49
2019-08-10 11:00:00 19.4 5 Sudoeste 12 Oeste 0 -- -- 58
2019-08-10 10:00:00 17.3 5 Oeste 12 Oeste 0 -- -- 68
2019-08-10 09:00:00 14.8 4 Oeste 13 Sudoeste 0 -- -- 79
2019-08-10 08:00:00 13.2 3 Sudoeste 6 Sudoeste 0 -- -- 90
2019-08-10 07:00:00 12.6 2 Oeste 6 Sudoeste 0 -- -- 89
2019-08-10 06:00:00 12.5 2 Noroeste 6 Sudoeste 0 -- -- 88
2019-08-10 05:00:00 13.1 4 Sudoeste 8 Sudoeste 0 -- -- 89
2019-08-10 04:00:00 12.7 0 Calma 5 Sudoeste 0 -- -- 89
2019-08-10 03:00:00 13.6 3 Norte 10 Sur 0 -- -- 85
2019-08-10 02:00:00 15.2 8 Sudoeste 15 Sudoeste 0 -- -- 81
2019-08-10 01:00:00 15.9 7 Sudoeste 22 Sudoeste 0 -- -- 80
2019-08-10 00:00:00 16.1 8 Sudoeste 21 Sudoeste 0 -- -- 79
2019-08-09 23:00:00 16.9 10 Sur 32 Sur 0 -- -- 73
2019-08-09 22:00:00 18.7 7 Sur 24 Sur 0 -- -- 66
2019-08-09 21:00:00 21.8 9 Sudoeste 34 Oeste 0 -- -- 52
2019-08-09 20:00:00 25.3 21 Oeste 37 Oeste 0 -- -- 36
2019-08-09 19:00:00 24.9 23 Oeste 39 Oeste 0 -- -- 35
2019-08-09 18:00:00 25.6 30 Oeste 51 Oeste 0 -- -- 31
2019-08-09 17:00:00 27 25 Oeste 47 Oeste 0 -- -- 33
2019-08-09 16:00:00 26.1 24 Sudoeste 43 Oeste 0 -- -- 40
2019-08-09 15:00:00 24.2 28 Sudoeste 49 Sudoeste 0 -- -- 51
2019-08-09 14:00:00 23.8 23 Oeste 47 Oeste 0 -- -- 56
2019-08-09 13:00:00 20.3 21 Sudoeste 45 Sudoeste 0 -- -- 70
2019-08-09 12:00:00 20.6 19 Oeste 34 Sudoeste 0 -- -- 75
2019-08-09 11:00:00 18.5 18 Oeste 37 Oeste 0 -- -- 86
2019-08-09 10:00:00 21.4 20 Sudoeste 40 Sudoeste 0 -- -- 72
2019-08-09 09:00:00 21.1 18 Sudoeste 37 Sudoeste 0 -- -- 70
2019-08-09 08:00:00 20.5 20 Sudoeste 35 Sudoeste 0 -- -- 70
2019-08-09 07:00:00 20.3 18 Sudoeste 36 Sudoeste 0 -- -- 70
2019-08-09 06:00:00 20.3 18 Sudoeste 30 Sudoeste 0 -- -- 68
2019-08-09 05:00:00 20.7 14 Sudoeste 27 Sudoeste 0 -- -- 66
2019-08-09 04:00:00 20.6 12 Sudoeste 24 Oeste 0 -- -- 67
2019-08-09 03:00:00 20.3 4 Sudoeste 16 Sudoeste 0 -- -- 68
2019-08-09 02:00:00 20.4 5 Sudoeste 12 Sudoeste 0 -- -- 68
2019-08-09 01:00:00 21.6 5 Sudoeste 17 Sudoeste 0 -- -- 63
2019-08-09 00:00:00 23 10 Sudoeste 22 Sudoeste 0 -- -- 57
2019-08-08 23:00:00 24.7 13 Sudoeste 29 Sudoeste 0 -- -- 51
2019-08-08 22:00:00 25.9 15 Oeste 30 Oeste 0 -- -- 47
2019-08-08 21:00:00 27.6 19 Oeste 36 Oeste 0 -- -- 43
2019-08-08 20:00:00 29.7 20 Oeste 39 Sudoeste 0 -- -- 41
2019-08-08 19:00:00 29.4 11 Sudoeste 37 Sudoeste 0 -- -- 45
2019-08-08 18:00:00 30.4 20 Sudoeste 38 Oeste 0 -- -- 44
2019-08-08 17:00:00 29.5 14 Sudoeste 27 Sudoeste 0 -- -- 44
2019-08-08 16:00:00 29.1 13 Sudoeste 31 Oeste 0 -- -- 46
2019-08-08 15:00:00 27.6 9 Oeste 23 Oeste 0 -- -- 54
2019-08-08 14:00:00 26.4 13 Oeste 27 Oeste 0 -- -- 57
2019-08-08 13:00:00 23.4 13 Oeste 32 Sudoeste 0 -- -- 67
2019-08-08 12:00:00 22.9 13 Sudoeste 26 Oeste 0 -- -- 65
2019-08-08 11:00:00 21.3 12 Sudoeste 25 Sudoeste 0 -- -- 72
2019-08-08 10:00:00 20.8 12 Sudoeste 27 Sudoeste 0 -- -- 69
2019-08-08 09:00:00 19.9 10 Sudoeste 17 Sudoeste 0 -- -- 72
2019-08-08 08:00:00 17.7 2 Oeste 7 Sudoeste 0 -- -- 85
2019-08-08 07:00:00 17.6 3 Sudoeste 6 Oeste 0 -- -- 84
2019-08-08 06:00:00 17.9 3 Oeste 7 Sudoeste 0 -- -- 83
2019-08-08 05:00:00 17.7 2 Sudoeste 7 Sudoeste 0 -- -- 84
2019-08-08 04:00:00 17.6 2 Sudoeste 9 Sudoeste 0 -- -- 86
2019-08-08 03:00:00 16.9 4 Oeste 6 Sudoeste 0 -- -- 89
2019-08-08 02:00:00 17 0 Calma 4 Sudoeste 0 -- -- 90
2019-08-08 01:00:00 17 0 Calma 5 Sudeste 0 -- -- 88
2019-08-08 00:00:00 17.8 0 Calma 8 Sur 0 -- -- 84
2019-08-07 23:00:00 18.6 3 Sur 9 Sur 0 -- -- 81
2019-08-07 22:00:00 18.5 5 Sudoeste 29 Oeste 0.4 -- -- 78
2019-08-07 21:00:00 21.5 3 Sudoeste 18 Noroeste 0 -- -- 61
2019-08-07 20:00:00 22.4 12 Noroeste 27 Noroeste 0 -- -- 57
2019-08-07 19:00:00 23.2 15 Noroeste 27 Noroeste 0 -- -- 52
2019-08-07 18:00:00 24.9 9 Oeste 32 Oeste 0 -- -- 45
2019-08-07 17:00:00 24.2 12 Sudoeste 40 Sudoeste 0 -- -- 46
2019-08-07 16:00:00 26.6 22 Sudoeste 37 Sudoeste 0 -- -- 37
2019-08-07 15:00:00 26.8 14 Oeste 31 Oeste 0 -- -- 39
2019-08-07 14:00:00 27.9 13 Sudoeste 26 Sudoeste 0 -- -- 35
2019-08-07 13:00:00 25.9 10 Sudoeste 17 Sudoeste 0 -- -- 44
2019-08-07 12:00:00 25.6 3 Oeste 8 Sudoeste 0 -- -- 48
2019-08-07 11:00:00 22.7 3 Este 8 Nordeste 0 -- -- 61
2019-08-07 10:00:00 20.2 2 Noroeste 6 Nordeste 0 -- -- 73
2019-08-07 09:00:00 17.6 3 Nordeste 6 Nordeste 0 -- -- 85
2019-08-07 08:00:00 15.7 0 Calma 4 Sudeste 0 -- -- 89
2019-08-07 07:00:00 15.4 0 Calma 3 Noroeste 0 -- -- 89
2019-08-07 06:00:00 15.8 0 Calma 5 Sudoeste 0 -- -- 86
2019-08-07 05:00:00 16.2 3 Oeste 10 Noroeste 0 -- -- 85
2019-08-07 04:00:00 17.2 4 Noroeste 13 Sudeste 0 -- -- 81
2019-08-07 03:00:00 18.2 7 Sudeste 16 Nordeste 0 -- -- 77
2019-08-07 02:00:00 17.7 11 Nordeste 19 Nordeste 0 -- -- 80
2019-08-07 01:00:00 17.9 10 Este 22 Nordeste 0 -- -- 82
2019-08-07 00:00:00 17.9 12 Nordeste 31 Este 0.2 -- -- 82
2019-08-06 23:00:00 18.8 18 Nordeste 37 Nordeste 0 -- -- 74
2019-08-06 22:00:00 20.4 18 Nordeste 37 Nordeste 0 -- -- 69
2019-08-06 21:00:00 25.7 3 Sudeste 12 Oeste 0 -- -- 41
2019-08-06 20:00:00 27.8 7 Oeste 17 Oeste 0 -- -- 35
2019-08-06 19:00:00 29.2 8 Oeste 22 Oeste 0 -- -- 34
2019-08-06 18:00:00 30.3 10 Oeste 24 Oeste 0 -- -- 35
2019-08-06 17:00:00 30.3 11 Oeste 24 Oeste 0 -- -- 35
2019-08-06 16:00:00 30.3 8 Oeste 26 Oeste 0 -- -- 38
2019-08-06 15:00:00 29.7 10 Oeste 25 Oeste 0 -- -- 39
2019-08-06 14:00:00 28.3 9 Noroeste 20 Noroeste 0 -- -- 44
2019-08-06 13:00:00 27.2 8 Oeste 16 Noroeste 0 -- -- 50
2019-08-06 12:00:00 24.5 6 Sur 13 Oeste 0 -- -- 53
2019-08-06 11:00:00 22.1 6 Sudoeste 10 Sudoeste 0 -- -- 61
2019-08-06 10:00:00 19.1 2 Noroeste 6 Norte 0 -- -- 69
2019-08-06 09:00:00 16.5 3 Sudeste 6 Sudeste 0 -- -- 77
2019-08-06 08:00:00 13.3 2 Sudeste 5 Este 0 -- -- 87
2019-08-06 07:00:00 12.8 3 Nordeste 6 Nordeste 0 -- -- 86
2019-08-06 06:00:00 13.4 0 Calma 5 Noroeste 0 -- -- 83
2019-08-06 05:00:00 14.1 3 Este 8 Este 0 -- -- 82
2019-08-06 04:00:00 15.1 2 Oeste 8 Noroeste 0 -- -- 78
2019-08-06 03:00:00 15.9 5 Este 12 Este 0 -- -- 76
2019-08-06 02:00:00 16.8 2 Norte 12 Este 0 -- -- 77
2019-08-06 01:00:00 18.2 8 Nordeste 22 Nordeste 0 -- -- 74
2019-08-06 00:00:00 19 14 Nordeste 31 Nordeste 0 -- -- 72
2019-08-05 23:00:00 20.4 16 Nordeste 29 Nordeste 0 -- -- 68
2019-08-05 22:00:00 23.4 11 Nordeste 26 Nordeste 0 -- -- 61
2019-08-05 21:00:00 26.4 15 Nordeste 28 Nordeste 0 -- -- 54
2019-08-05 20:00:00 31.3 11 Noroeste 18 Norte 0 -- -- 31
2019-08-05 19:00:00 32.8 10 Noroeste 20 Oeste 0 -- -- 30
2019-08-05 18:00:00 33.2 9 Noroeste 24 Oeste 0 -- -- 30
2019-08-05 17:00:00 32.8 10 Noroeste 23 Noroeste 0 -- -- 31
2019-08-05 16:00:00 32.4 9 Oeste 23 Oeste 0 -- -- 32
2019-08-05 15:00:00 31.3 9 Oeste 23 Oeste 0 -- -- 35
2019-08-05 14:00:00 30.3 8 Noroeste 17 Noroeste 0 -- -- 36
2019-08-05 13:00:00 28.9 7 Noroeste 12 Noroeste 0 -- -- 42
2019-08-05 12:00:00 26.3 4 Norte 10 Norte 0 -- -- 49
2019-08-05 11:00:00 23.5 4 Norte 13 Nordeste 0 -- -- 58
2019-08-05 10:00:00 20.5 7 Nordeste 15 Nordeste 0 -- -- 67
2019-08-05 09:00:00 17.3 5 Nordeste 13 Nordeste 0 -- -- 81
2019-08-05 08:00:00 13.8 3 Noroeste 9 Este 0 -- -- 90
2019-08-05 07:00:00 14.2 4 Este 9 Este 0 -- -- 88
2019-08-05 06:00:00 14.7 0 Calma 8 Este 0 -- -- 87
2019-08-05 05:00:00 15.4 3 Este 9 Este 0 -- -- 86
2019-08-05 04:00:00 16.3 6 Nordeste 16 Este 0 -- -- 85
2019-08-05 03:00:00 16.7 8 Nordeste 19 Este 0 -- -- 84
2019-08-05 02:00:00 17.1 10 Nordeste 25 Nordeste 0 -- -- 82
2019-08-05 01:00:00 17.4 14 Nordeste 30 Nordeste 0 -- -- 81
2019-08-05 00:00:00 17.8 15 Nordeste 31 Nordeste 0 -- -- 80
2019-08-04 23:00:00 18.6 17 Nordeste 29 Nordeste 0 -- -- 76
2019-08-04 22:00:00 21.5 16 Nordeste 33 Nordeste 0 -- -- 67
2019-08-04 21:00:00 29.7 4 Noroeste 18 Oeste 0 -- -- 36
2019-08-04 20:00:00 32.2 6 Oeste 22 Oeste 0 -- -- 28
2019-08-04 19:00:00 32.9 6 Oeste 24 Oeste 0 -- -- 26
2019-08-04 18:00:00 33.1 12 Oeste 25 Noroeste 0 -- -- 28
2019-08-04 17:00:00 32.9 11 Noroeste 30 Sudoeste 0 -- -- 30
2019-08-04 16:00:00 32.2 9 Noroeste 23 Oeste 0 -- -- 32
2019-08-04 15:00:00 31.1 9 Noroeste 22 Noroeste 0 -- -- 39
2019-08-04 14:00:00 29.8 6 Oeste 15 Oeste 0 -- -- 41
2019-08-04 13:00:00 27.7 5 Norte 16 Este 0 -- -- 46
2019-08-04 12:00:00 25.7 4 Norte 16 Nordeste 0 -- -- 53
2019-08-04 11:00:00 23.2 6 Nordeste 17 Nordeste 0 -- -- 59
2019-08-04 10:00:00 20.8 9 Nordeste 15 Nordeste 0 -- -- 71
2019-08-04 09:00:00 18.2 9 Nordeste 16 Este 0 -- -- 82
2019-08-04 08:00:00 15.4 2 Este 14 Este 0 -- -- 89
2019-08-04 07:00:00 15.4 8 Este 18 Este 0 -- -- 87
2019-08-04 06:00:00 15.7 9 Nordeste 19 Nordeste 0 -- -- 86
2019-08-04 05:00:00 15.7 4 Nordeste 13 Nordeste 0 -- -- 82
2019-08-04 04:00:00 16.2 5 Este 12 Nordeste 0 -- -- 78
2019-08-04 03:00:00 17.1 5 Nordeste 16 Nordeste 0 -- -- 75
2019-08-04 02:00:00 17.9 3 Nordeste 16 Nordeste 0 -- -- 75
2019-08-04 01:00:00 18.6 6 Nordeste 27 Nordeste 0 -- -- 71
2019-08-04 00:00:00 19.7 18 Nordeste 35 Nordeste 0 -- -- 66
2019-08-03 23:00:00 20.7 19 Nordeste 35 Nordeste 0 -- -- 67
2019-08-03 22:00:00 24.6 17 Nordeste 31 Nordeste 0 -- -- 59
2019-08-03 21:00:00 30.2 4 Noroeste 12 Oeste 0 -- -- 38
2019-08-03 20:00:00 33.5 6 Oeste 15 Oeste 0 -- -- 24
2019-08-03 19:00:00 34.3 3 Noroeste 18 Oeste 0 -- -- 23
2019-08-03 18:00:00 34.7 6 Sudoeste 26 Oeste 0 -- -- 20
2019-08-03 17:00:00 33.7 7 Noroeste 20 Oeste 0 -- -- 23
2019-08-03 16:00:00 34.3 6 Oeste 18 Oeste 0 -- -- 24
2019-08-03 15:00:00 33.3 8 Noroeste 19 Noroeste 0 -- -- 27
2019-08-03 14:00:00 32 4 Norte 13 Oeste 0 -- -- 32
2019-08-03 13:00:00 30.9 5 Este 13 Sudoeste 0 -- -- 33
2019-08-03 12:00:00 29 6 Sur 14 Sudeste 0 -- -- 36
2019-08-03 11:00:00 25.5 5 Nordeste 11 Nordeste 0 -- -- 44
2019-08-03 10:00:00 21.8 5 Nordeste 12 Nordeste 0 -- -- 59
2019-08-03 09:00:00 18.3 6 Este 13 Nordeste 0 -- -- 67
2019-08-03 08:00:00 14.6 4 Nordeste 16 Este 0 -- -- 79
2019-08-03 07:00:00 13.8 6 Nordeste 13 Este 0 -- -- 80
2019-08-03 06:00:00 13.8 8 Este 13 Este 0 -- -- 81
2019-08-03 05:00:00 15 3 Este 11 Este 0 -- -- 77
2019-08-03 04:00:00 16.1 6 Este 12 Este 0 -- -- 72
2019-08-03 03:00:00 16.7 2 Nordeste 15 Este 0 -- -- 70
2019-08-03 02:00:00 18 10 Este 17 Este 0 -- -- 63
2019-08-03 01:00:00 19.2 9 Este 20 Este 0 -- -- 65
2019-08-03 00:00:00 20.7 9 Nordeste 23 Nordeste 0 -- -- 62
2019-08-02 23:00:00 22 11 Nordeste 28 Este 0 -- -- 61
2019-08-02 22:00:00 24.8 14 Este 28 Este 0 -- -- 52
2019-08-02 21:00:00 28 18 Este 31 Este 0 -- -- 41
2019-08-02 20:00:00 30.9 4 Norte 17 Noroeste 0 -- -- 32
2019-08-02 19:00:00 31.9 5 Noroeste 17 Noroeste 0 -- -- 24
2019-08-02 18:00:00 32.2 8 Noroeste 18 Noroeste 0 -- -- 29
2019-08-02 17:00:00 31.4 11 Noroeste 20 Noroeste 0 -- -- 29
2019-08-02 16:00:00 31.2 8 Norte 19 Noroeste 0 -- -- 28
2019-08-02 15:00:00 30.2 6 Nordeste 14 Nordeste 0 -- -- 28
2019-08-02 14:00:00 28.9 4 Noroeste 12 Este 0 -- -- 37
2019-08-02 13:00:00 26.4 4 Norte 14 Nordeste 0 -- -- 47
2019-08-02 12:00:00 23.8 6 Nordeste 16 Norte 0 -- -- 56
2019-08-02 11:00:00 21.3 8 Nordeste 18 Este 0 -- -- 62
2019-08-02 10:00:00 18.7 10 Nordeste 19 Este 0 -- -- 71
2019-08-02 09:00:00 15.9 6 Nordeste 14 Nordeste 0 -- -- 84
2019-08-02 08:00:00 12.6 0 Calma 8 Nordeste 0 -- -- 91
2019-08-02 07:00:00 13.1 3 Nordeste 12 Nordeste 0 -- -- 89
2019-08-02 06:00:00 14.3 4 Nordeste 25 Nordeste 0 -- -- 88
2019-08-02 05:00:00 14.6 8 Nordeste 19 Este 0 -- -- 88
2019-08-02 04:00:00 14.2 6 Nordeste 14 Nordeste 0 -- -- 88
2019-08-02 03:00:00 14.1 8 Nordeste 22 Este 0 -- -- 87
2019-08-02 02:00:00 14.7 13 Nordeste 22 Nordeste 0 -- -- 84
2019-08-02 01:00:00 15.2 9 Nordeste 27 Nordeste 0 -- -- 84
2019-08-02 00:00:00 16.1 17 Nordeste 31 Este 0 -- -- 80
2019-08-01 23:00:00 16.7 15 Nordeste 30 Nordeste 0 -- -- 78
2019-08-01 22:00:00 18 17 Nordeste 37 Nordeste 0 -- -- 74
2019-08-01 21:00:00 20.7 22 Nordeste 38 Nordeste 0 -- -- 68
2019-08-01 20:00:00 23.9 20 Nordeste 32 Nordeste 0 -- -- 57
2019-08-01 19:00:00 25.5 17 Nordeste 35 Nordeste 0 -- -- 53
2019-08-01 18:00:00 28.4 14 Nordeste 25 Nordeste 0 -- -- 46
2019-08-01 17:00:00 29.1 8 Nordeste 21 Noroeste 0 -- -- 45
2019-08-01 16:00:00 29.1 6 Norte 18 Noroeste 0 -- -- 42
2019-08-01 15:00:00 27.8 4 Nordeste 14 Este 0 -- -- 50
2019-08-01 14:00:00 25.7 7 Nordeste 17 Nordeste 0 -- -- 56
2019-08-01 13:00:00 24 6 Nordeste 19 Nordeste 0 -- -- 61
2019-08-01 12:00:00 22.3 10 Nordeste 25 Este 0 -- -- 68
2019-08-01 11:00:00 20 13 Nordeste 27 Este 0 -- -- 75
2019-08-01 10:00:00 18.2 14 Nordeste 27 Nordeste 0 -- -- 80
2019-08-01 09:00:00 15.9 9 Nordeste 18 Este 0 -- -- 87
2019-08-01 08:00:00 13.8 8 Nordeste 16 Nordeste 0 -- -- 92
2019-08-01 07:00:00 13.7 11 Nordeste 20 Este 0 -- -- 91
2019-08-01 06:00:00 13.8 8 Nordeste 19 Nordeste 0 -- -- 90
2019-08-01 05:00:00 13.6 10 Nordeste 19 Nordeste 0 -- -- 91
2019-08-01 04:00:00 13.5 11 Nordeste 25 Nordeste 0 -- -- 89
2019-08-01 03:00:00 14.1 12 Nordeste 28 Nordeste 1.6 -- -- 88
2019-08-01 02:00:00 15.5 11 Nordeste 29 Nordeste 0 -- -- 77
2019-08-01 01:00:00 15.9 11 Nordeste 24 Norte 0 -- -- 75
2019-08-01 00:00:00 16.8 12 Nordeste 24 Nordeste 0 -- -- 72
2019-07-31 23:00:00 18.1 13 Nordeste 25 Norte 0 -- -- 67
2019-07-31 22:00:00 20.1 15 Nordeste 31 Nordeste 0 -- -- 58
2019-07-31 21:00:00 21.9 16 Nordeste 33 Nordeste 0 -- -- 49
2019-07-31 20:00:00 23 17 Nordeste 33 Nordeste 0 -- -- 46
2019-07-31 19:00:00 24.3 17 Nordeste 27 Nordeste 0 -- -- 41
2019-07-31 18:00:00 25.5 11 Nordeste 24 Este 0 -- -- 38
2019-07-31 17:00:00 26.4 11 Nordeste 23 Este 0 -- -- 37
2019-07-31 16:00:00 25.2 12 Nordeste 23 Este 0 -- -- 38
2019-07-31 15:00:00 24.5 11 Nordeste 26 Nordeste 0 -- -- 39
2019-07-31 14:00:00 24 10 Nordeste 26 Este 0 -- -- 40
2019-07-31 13:00:00 22.8 13 Este 26 Nordeste 0 -- -- 41
2019-07-31 12:00:00 20.5 11 Nordeste 25 Nordeste 0 -- -- 50
2019-07-31 11:00:00 18.3 13 Nordeste 27 Este 0 -- -- 54
2019-07-31 10:00:00 15.4 11 Nordeste 23 Nordeste 0 -- -- 64
2019-07-31 09:00:00 12.5 8 Nordeste 16 Nordeste 0 -- -- 76
2019-07-31 08:00:00 9.8 3 Nordeste 10 Nordeste 0 -- -- 88
2019-07-31 07:00:00 9.5 3 Este 12 Nordeste 0 -- -- 87
2019-07-31 06:00:00 9.8 5 Nordeste 19 Nordeste 0 -- -- 87
2019-07-31 05:00:00 10.2 9 Nordeste 19 Nordeste 0 -- -- 87
2019-07-31 04:00:00 10.3 7 Este 15 Nordeste 0 -- -- 87
2019-07-31 03:00:00 10.9 6 Nordeste 16 Este 0 -- -- 86
2019-07-31 02:00:00 10.9 6 Nordeste 20 Nordeste 0 -- -- 83
2019-07-31 01:00:00 11.9 11 Nordeste 26 Nordeste 0 -- -- 78
2019-07-31 00:00:00 12.6 15 Nordeste 30 Nordeste 0 -- -- 75
2019-07-30 23:00:00 13.6 14 Nordeste 30 Nordeste 0 -- -- 70
2019-07-30 22:00:00 15 17 Nordeste 31 Nordeste 0 -- -- 66
2019-07-30 21:00:00 17.7 17 Nordeste 35 Nordeste 0 -- -- 57
2019-07-30 20:00:00 19.7 18 Nordeste 37 Nordeste 0 -- -- 52
2019-07-30 19:00:00 23.3 14 Nordeste 29 Nordeste 0 -- -- 37
2019-07-30 18:00:00 23.6 12 Norte 24 Norte 0 -- -- 33
2019-07-30 17:00:00 23.9 10 Norte 29 Nordeste 0 -- -- 33
2019-07-30 16:00:00 23.4 8 Nordeste 28 Nordeste 0 -- -- 38
2019-07-30 15:00:00 22.5 10 Nordeste 24 Nordeste 0 -- -- 37
2019-07-30 14:00:00 21.8 9 Nordeste 22 Nordeste 0 -- -- 40
2019-07-30 13:00:00 20.7 9 Nordeste 21 Norte 0 -- -- 45
2019-07-30 12:00:00 18.9 9 Nordeste 21 Nordeste 0 -- -- 50
2019-07-30 11:00:00 17.6 10 Este 21 Nordeste 0 -- -- 57
2019-07-30 10:00:00 15.8 12 Nordeste 23 Nordeste 0 -- -- 66
2019-07-30 09:00:00 13.2 6 Nordeste 17 Nordeste 0 -- -- 82
2019-07-30 08:00:00 11.6 5 Este 12 Nordeste 0 -- -- 91
2019-07-30 07:00:00 11 2 Este 8 Nordeste 0 -- -- 88
2019-07-30 06:00:00 11.6 0 Calma 6 Este 0 -- -- 90
2019-07-30 05:00:00 11.5 0 Calma 4 Noroeste 0 -- -- 89
2019-07-30 04:00:00 12.1 0 Calma 5 Sudoeste 0 -- -- 90
2019-07-30 03:00:00 11 3 Sudoeste 4 Oeste 0 -- -- 89
2019-07-30 02:00:00 11.8 0 Calma 4 Oeste 0 -- -- 87
2019-07-30 01:00:00 12.7 3 Oeste 5 Noroeste 0 -- -- 83
2019-07-30 00:00:00 13.9 3 Norte 15 Nordeste 0 -- -- 83
2019-07-29 23:00:00 15.4 12 Nordeste 26 Nordeste 0 -- -- 78
2019-07-29 22:00:00 17.4 12 Nordeste 22 Nordeste 0 -- -- 70
2019-07-29 21:00:00 23.3 13 Noroeste 32 Noroeste 0 -- -- 36
2019-07-29 20:00:00 25.7 16 Noroeste 40 Oeste 0 -- -- 35
2019-07-29 19:00:00 27.2 17 Sudoeste 35 Sudoeste 0 -- -- 23
2019-07-29 18:00:00 27.4 19 Oeste 36 Sudoeste 0 -- -- 23
2019-07-29 17:00:00 27.2 20 Oeste 37 Sudoeste 0 -- -- 27
2019-07-29 16:00:00 26.9 19 Sudoeste 41 Oeste 0 -- -- 27
2019-07-29 15:00:00 26.2 23 Oeste 39 Oeste 0 -- -- 35
2019-07-29 14:00:00 25.4 17 Sudoeste 31 Sur 0 -- -- 44
2019-07-29 13:00:00 24 19 Sudoeste 36 Oeste 0 -- -- 45
2019-07-29 12:00:00 22.8 11 Sudoeste 20 Sudoeste 0 -- -- 40
2019-07-29 11:00:00 21.2 11 Sudoeste 22 Sudoeste 0 -- -- 45
2019-07-29 10:00:00 19 11 Sudoeste 21 Sudoeste 0 -- -- 47
2019-07-29 09:00:00 15.8 12 Sudoeste 23 Sudoeste 0 -- -- 56
2019-07-29 08:00:00 10.1 3 Oeste 6 Oeste 0 -- -- 86
2019-07-29 07:00:00 9.7 4 Sudoeste 7 Sudoeste 0 -- -- 82
2019-07-29 06:00:00 9.9 0 Calma 3 Oeste 0 -- -- 82
2019-07-29 05:00:00 10.4 0 Calma 6 Este 0 -- -- 82
2019-07-29 04:00:00 11.9 0 Calma 6 Sudoeste 0 -- -- 76
2019-07-29 03:00:00 13.6 2 Oeste 14 Sudeste 0 -- -- 61
2019-07-29 02:00:00 13.2 3 Noroeste 8 Sudoeste 0 -- -- 64
2019-07-29 01:00:00 14.8 3 Este 8 Este 0 -- -- 58
2019-07-29 00:00:00 15 5 Este 7 Este 0 -- -- 60
2019-07-28 23:00:00 15.7 3 Nordeste 6 Este 0 -- -- 63
2019-07-28 22:00:00 18.7 2 Nordeste 6 Sudoeste 0 -- -- 64
2019-07-28 21:00:00 24.8 3 Oeste 12 Oeste 0 -- -- 38
2019-07-28 20:00:00 25.7 8 Oeste 21 Oeste 0 -- -- 31
2019-07-28 19:00:00 25.8 3 Norte 19 Oeste 0 -- -- 31
2019-07-28 18:00:00 25.5 8 Noroeste 16 Noroeste 0 -- -- 34
2019-07-28 17:00:00 24.4 5 Noroeste 19 Noroeste 0 -- -- 36
2019-07-28 16:00:00 23.3 7 Nordeste 17 Norte 0 -- -- 40
2019-07-28 15:00:00 22.2 6 Norte 15 Noroeste 0 -- -- 40
2019-07-28 14:00:00 21.5 5 Noroeste 11 Sudoeste 0 -- -- 48
2019-07-28 13:00:00 20.1 5 Sudeste 15 Nordeste 0 -- -- 54
2019-07-28 12:00:00 18 5 Norte 14 Nordeste 0 -- -- 65
2019-07-28 11:00:00 16.5 7 Norte 13 Norte 0 -- -- 72
2019-07-28 10:00:00 14.4 5 Este 10 Nordeste 0 -- -- 78
2019-07-28 09:00:00 11.5 2 Nordeste 4 Oeste 0 -- -- 93
2019-07-28 08:00:00 8.5 0 Calma 4 Sur 0 -- -- 95
2019-07-28 07:00:00 7.7 2 Sudoeste 7 Nordeste 0 -- -- 94
2019-07-28 06:00:00 8 4 Nordeste 6 Nordeste 0 -- -- 93
2019-07-28 05:00:00 8.1 3 Nordeste 8 Oeste 0 -- -- 93
2019-07-28 04:00:00 8.9 2 Oeste 4 Nordeste 0 -- -- 92
2019-07-28 03:00:00 9.5 2 Nordeste 5 Nordeste 0 -- -- 91
2019-07-28 02:00:00 10.3 2 Este 10 Este 0 -- -- 90
2019-07-28 01:00:00 11.2 6 Nordeste 11 Este 0 -- -- 90
2019-07-28 00:00:00 11.8 5 Nordeste 21 Este 0 -- -- 87
2019-07-27 23:00:00 12.8 11 Este 23 Nordeste 0 -- -- 82
2019-07-26 12:00:00 -- -- -- -- -- -- -- -- --
2019-07-26 11:00:00 -- -- -- -- -- -- -- -- --
2019-07-26 10:00:00 -- -- -- -- -- -- -- -- --
2019-07-26 09:00:00 18.5 10 Norte 23 Nordeste 0 -- -- 80
2019-07-26 08:00:00 17.9 12 Norte 19 Norte 0 -- -- 84
2019-07-26 07:00:00 18.4 3 Nordeste 21 Este 0 -- -- 85
2019-07-26 06:00:00 18.7 8 Nordeste 15 Nordeste 0 -- -- 84
2019-07-26 05:00:00 19.2 3 Norte 14 Noroeste 0 -- -- 81
2019-07-26 04:00:00 19.1 5 Nordeste 16 Este 0 -- -- 82
2019-07-26 03:00:00 19 9 Nordeste 21 Nordeste 0 -- -- 81
2019-07-26 02:00:00 18.9 11 Nordeste 23 Nordeste 0 -- -- 80
2019-07-26 01:00:00 18.5 12 Nordeste 23 Nordeste 0 -- -- 79
2019-07-26 00:00:00 18.9 14 Nordeste 33 Nordeste 0 -- -- 77
2019-07-25 23:00:00 20 18 Nordeste 36 Nordeste 0 -- -- 72
2019-07-25 22:00:00 25.8 7 Oeste 13 Oeste 0 -- -- 41
2019-07-25 21:00:00 28.6 7 Oeste 25 Oeste 0 -- -- 33
2019-07-25 20:00:00 30.5 11 Oeste 30 Oeste 0 -- -- 28
2019-07-25 19:00:00 32.4 16 Oeste 32 Noroeste 0 -- -- 26
2019-07-25 18:00:00 31.5 17 Oeste 36 Oeste 0 -- -- 27
2019-07-25 17:00:00 33.7 18 Oeste 37 Sudoeste 0 -- -- 26
2019-07-25 16:00:00 33.5 19 Sur 46 Sur 0 -- -- 24
2019-07-25 15:00:00 33 19 Sudoeste 40 Oeste 0 -- -- 26
2019-07-25 14:00:00 31.4 19 Sudoeste 37 Sudoeste 0 -- -- 30
2019-07-25 13:00:00 31.3 13 Sudoeste 23 Sur 0 -- -- 33
2019-07-25 12:00:00 29.4 9 Sudoeste 22 Sudoeste 0 -- -- 34
2019-07-25 11:00:00 27.2 5 Sudoeste 14 Sudoeste 0 -- -- 41
2019-07-25 10:00:00 23.9 3 Norte 6 Nordeste 0 -- -- 55
2019-07-25 09:00:00 20.2 2 Nordeste 6 Nordeste 0 -- -- 75
2019-07-25 08:00:00 16.9 4 Nordeste 7 Nordeste 0 -- -- 84
2019-07-25 07:00:00 16.6 0 Calma 4 Sudoeste 0 -- -- 84
2019-07-25 06:00:00 17.4 0 Calma 7 Sudoeste 0 -- -- 81
2019-07-25 05:00:00 19 3 Sudoeste 12 Oeste 0 -- -- 74
2019-07-25 04:00:00 21.5 7 Sur 16 Sudeste 0 -- -- 59
2019-07-25 03:00:00 17.9 0 Calma 3 Este 0 -- -- 85
2019-07-25 02:00:00 19 3 Este 5 Este 0 -- -- 81
2019-07-25 01:00:00 19.8 3 Este 5 Este 0 -- -- 81
2019-07-25 00:00:00 21.8 2 Nordeste 4 Este 0 -- -- 76
2019-07-24 23:00:00 23.6 0 Calma 5 Este 0 -- -- 71
2019-07-24 22:00:00 26.7 3 Este 6 Sudoeste 0 -- -- 56
2019-07-24 21:00:00 32.7 5 Sudoeste 21 Sudoeste 0 -- -- 33
2019-07-24 20:00:00 34.4 15 Sudoeste 25 Sudoeste 0 -- -- 27
2019-07-24 19:00:00 34.6 14 Sudoeste 25 Sudoeste 0 -- -- 27
2019-07-24 18:00:00 35 13 Sudoeste 27 Sudoeste 0 -- -- 28
2019-07-24 17:00:00 34.7 13 Sudoeste 37 Sudoeste 0 -- -- 28
2019-07-24 16:00:00 34.6 16 Sudoeste 33 Sudoeste 0 -- -- 30
2019-07-24 15:00:00 33.5 12 Sudoeste 27 Sudoeste 0 -- -- 32
2019-07-24 14:00:00 31.9 15 Sudoeste 27 Oeste 0 -- -- 36
2019-07-24 13:00:00 30.7 10 Sudoeste 28 Sudoeste 0 -- -- 38
2019-07-24 12:00:00 28.8 9 Sur 20 Sudeste 0 -- -- 42
2019-07-24 11:00:00 26.4 9 Sudeste 16 Sudeste 0.2 -- -- 51
2019-07-24 10:00:00 22.8 3 Norte 10 Norte 0 -- -- 65
2019-07-24 09:00:00 18.8 2 Nordeste 9 Este 0 -- -- 81
2019-07-24 08:00:00 15.6 3 Nordeste 9 Nordeste 0 -- -- 90
2019-07-24 07:00:00 15.5 4 Nordeste 10 Este 0 -- -- 88
2019-07-24 06:00:00 15.6 2 Nordeste 7 Sudeste 0 -- -- 88
2019-07-24 05:00:00 16.4 4 Nordeste 8 Este 0 -- -- 85
2019-07-24 04:00:00 17.7 4 Sudeste 8 Sudoeste 0 -- -- 81
2019-07-24 03:00:00 19.1 9 Sur 15 Sudoeste 0 -- -- 75
2019-07-24 02:00:00 21 7 Este 24 Este 0 -- -- 61
2019-07-24 01:00:00 20.4 17 Este 49 Sur 1.4 -- -- 62
2019-07-24 00:00:00 20.4 20 Sudeste 41 Sudeste 0.2 -- -- 73
2019-07-23 23:00:00 19.4 6 Nordeste 19 Este 0 -- -- 78
2019-07-23 22:00:00 19.8 9 Nordeste 26 Este 0.8 -- -- 78
2019-07-23 21:00:00 22.5 9 Nordeste 36 Oeste 2.6 -- -- 64
2019-07-23 20:00:00 24.4 19 Este 39 Este 0.6 -- -- 52
2019-07-23 19:00:00 23.4 12 Este 56 Sur 3 -- -- 53
2019-07-23 18:00:00 35.5 12 Sudoeste 27 Sudoeste 0 -- -- 27
2019-07-23 17:00:00 35.5 9 Sudoeste 28 Oeste 0 -- -- 26
2019-07-23 16:00:00 34.7 18 Sudoeste 31 Oeste 0 -- -- 26
2019-07-23 15:00:00 33.5 7 Sur 37 Sur 0 -- -- 28
2019-07-23 14:00:00 32.2 19 Sudoeste 36 Sudoeste 0 -- -- 32
2019-07-23 13:00:00 30.6 17 Sur 28 Sur 0 -- -- 39
2019-07-23 12:00:00 28.4 5 Este 15 Sudeste 0 -- -- 41
2019-07-23 11:00:00 24.4 5 Este 17 Nordeste 0 -- -- 53
2019-07-23 10:00:00 20.9 7 Nordeste 12 Norte 0 -- -- 72
2019-07-23 09:00:00 20.1 5 Oeste 18 Sudoeste 0 -- -- 68
2019-07-23 08:00:00 17.9 6 Oeste 16 Oeste 0 -- -- 73
2019-07-23 07:00:00 17.6 4 Este 13 Sudoeste 0 -- -- 72
2019-07-23 06:00:00 19.7 8 Oeste 16 Nordeste 0 -- -- 64
2019-07-23 05:00:00 17.7 5 Este 13 Nordeste 0 -- -- 66
2019-07-23 04:00:00 18.3 5 Nordeste 10 Este 0 -- -- 64
2019-07-23 03:00:00 18.8 5 Este 15 Sudoeste 0 -- -- 67
2019-07-23 02:00:00 19 7 Nordeste 14 Nordeste 0 -- -- 66
2019-07-23 01:00:00 19.7 0 Calma 7 Este 0 -- -- 67
2019-07-23 00:00:00 21.7 4 Este 21 Norte 0 -- -- 58
2019-07-22 23:00:00 24.1 12 Norte 26 Norte 0 -- -- 50
2019-07-22 22:00:00 25.8 4 Oeste 42 Oeste 0 -- -- 44
2019-07-22 21:00:00 26.9 24 Sudoeste 51 Sudeste 0 -- -- 41
2019-07-22 20:00:00 33.3 27 Sudeste 54 Sudeste 0 -- -- 22
2019-07-22 19:00:00 34.6 12 Sudoeste 38 Sudeste 0 -- -- 19
2019-07-22 18:00:00 35.6 17 Sur 41 Sur 0 -- -- 20
2019-07-22 17:00:00 37.8 12 Este 24 Nordeste 0 -- -- 19
2019-07-22 16:00:00 38.1 8 Nordeste 24 Este 0 -- -- 21
2019-07-22 15:00:00 37.1 8 Sudeste 21 Este 0 -- -- 21
2019-07-22 14:00:00 35.7 8 Este 19 Sudeste 0 -- -- 25
2019-07-22 13:00:00 33.5 5 Nordeste 17 Este 0 -- -- 32
2019-07-22 12:00:00 30.8 9 Este 23 Este 0 -- -- 35
2019-07-22 11:00:00 27 10 Nordeste 17 Nordeste 0 -- -- 50
2019-07-22 10:00:00 23.3 10 Nordeste 21 Este 0 -- -- 65
2019-07-22 09:00:00 20.4 5 Nordeste 14 Nordeste 0 -- -- 76
2019-07-22 08:00:00 17.2 7 Este 15 Este 0 -- -- 88
2019-07-22 07:00:00 16.8 10 Este 19 Este 0 -- -- 89
2019-07-22 06:00:00 16.9 6 Este 12 Este 0 -- -- 88
2019-07-22 05:00:00 17.4 8 Este 13 Este 0 -- -- 86
2019-07-22 04:00:00 18 7 Nordeste 21 Este 0 -- -- 85
2019-07-22 03:00:00 18.7 11 Nordeste 22 Nordeste 0 -- -- 82
2019-07-22 02:00:00 19.3 12 Nordeste 24 Nordeste 0 -- -- 80
2019-07-22 01:00:00 20 12 Nordeste 24 Este 0 -- -- 77
2019-07-22 00:00:00 20.5 13 Nordeste 28 Nordeste 0 -- -- 75
2019-07-21 23:00:00 21.3 14 Nordeste 30 Nordeste 0 -- -- 72
2019-07-21 22:00:00 22.6 19 Nordeste 34 Nordeste 0 -- -- 68
2019-07-21 21:00:00 27.5 13 Nordeste 31 Nordeste 0 -- -- 54
2019-07-21 20:00:00 32 9 Norte 26 Nordeste 0 -- -- 36
2019-07-21 19:00:00 32.8 12 Nordeste 24 Norte 0 -- -- 33
2019-07-21 18:00:00 34.3 8 Norte 20 Sudeste 0 -- -- 29
2019-07-21 17:00:00 34.3 8 Este 17 Norte 0 -- -- 29
2019-07-21 16:00:00 32.7 4 Norte 18 Norte 0 -- -- 34
2019-07-21 15:00:00 31.1 8 Nordeste 21 Nordeste 0 -- -- 40
2019-07-21 14:00:00 29.9 11 Nordeste 23 Este 0 -- -- 43
2019-07-21 13:00:00 28.4 9 Nordeste 21 Nordeste 0 -- -- 50
2019-07-21 12:00:00 26.6 11 Nordeste 23 Nordeste 0 -- -- 56
2019-07-21 11:00:00 24.5 9 Nordeste 21 Norte 0 -- -- 62
2019-07-21 10:00:00 21.9 12 Nordeste 21 Nordeste 0 -- -- 69
2019-07-21 09:00:00 19.1 10 Nordeste 21 Nordeste 0 -- -- 79
2019-07-21 08:00:00 16 4 Nordeste 13 Nordeste 0 -- -- 89
2019-07-21 07:00:00 15.4 5 Nordeste 16 Nordeste 0 -- -- 88
2019-07-21 06:00:00 15.9 7 Nordeste 21 Nordeste 0 -- -- 87
2019-07-21 05:00:00 16.5 11 Nordeste 24 Nordeste 0 -- -- 85
2019-07-21 04:00:00 17.1 9 Nordeste 24 Nordeste 0 -- -- 83
2019-07-21 03:00:00 17.5 16 Nordeste 35 Nordeste 0 -- -- 81
2019-07-21 02:00:00 17.8 14 Nordeste 31 Nordeste 0 -- -- 80
2019-07-21 01:00:00 17.8 16 Nordeste 31 Nordeste 0 -- -- 81
2019-07-21 00:00:00 18.1 16 Nordeste 36 Nordeste 0 -- -- 80
2019-07-20 23:00:00 18.6 17 Nordeste 33 Nordeste 0 -- -- 78
2019-07-20 22:00:00 19.5 19 Nordeste 38 Nordeste 0 -- -- 75
2019-07-20 21:00:00 23 19 Nordeste 37 Nordeste 0 -- -- 65
2019-07-20 20:00:00 28.9 18 Nordeste 39 Nordeste 0 -- -- 48
2019-07-20 19:00:00 33.6 11 Noroeste 26 Oeste 0 -- -- 27
2019-07-20 18:00:00 33.7 8 Noroeste 30 Noroeste 0 -- -- 28
2019-07-20 17:00:00 33.7 12 Oeste 31 Oeste 0 -- -- 28
2019-07-20 16:00:00 33.2 15 Oeste 29 Oeste 0 -- -- 30
2019-07-20 15:00:00 31.8 6 Nordeste 17 Noroeste 0 -- -- 33
2019-07-20 14:00:00 31.4 6 Sudoeste 17 Noroeste 0 -- -- 34
2019-07-20 13:00:00 29.7 5 Norte 9 Noroeste 0 -- -- 41
2019-07-20 12:00:00 28 4 Nordeste 13 Este 0 -- -- 44
2019-07-20 11:00:00 25.6 3 Nordeste 16 Nordeste 0 -- -- 50
2019-07-20 10:00:00 22.2 5 Nordeste 11 Nordeste 0 -- -- 62
2019-07-20 09:00:00 18.8 0 Calma 3 Sudoeste 0 -- -- 68
2019-07-20 08:00:00 14.7 2 Norte 5 Oeste 0 -- -- 82
2019-07-20 07:00:00 13.9 0 Calma 5 Noroeste 0 -- -- 82
2019-07-20 06:00:00 14.8 2 Nordeste 6 Noroeste 0 -- -- 75
2019-07-20 05:00:00 15.5 3 Nordeste 6 Nordeste 0 -- -- 71
2019-07-20 04:00:00 16.4 2 Nordeste 8 Noroeste 0 -- -- 72
2019-07-20 03:00:00 18.1 2 Nordeste 15 Nordeste 0 -- -- 67
2019-07-20 02:00:00 20 8 Nordeste 19 Este 0 -- -- 56
2019-07-20 01:00:00 21.1 12 Este 26 Este 0 -- -- 57
2019-07-20 00:00:00 22.1 15 Nordeste 24 Nordeste 0 -- -- 60
2019-07-19 23:00:00 21.4 0 Calma 3 Noroeste 0 -- -- 59
2019-07-19 22:00:00 25.4 0 Calma 9 Oeste 0 -- -- 45
2019-07-19 21:00:00 31.3 6 Oeste 20 Oeste 0 -- -- 26
2019-07-19 20:00:00 33 12 Oeste 27 Oeste 0 -- -- 24
2019-07-19 19:00:00 34.1 12 Oeste 24 Oeste 0 -- -- 24
2019-07-19 18:00:00 34.4 12 Oeste 30 Oeste 0 -- -- 26
2019-07-19 17:00:00 33.9 9 Noroeste 33 Oeste 0 -- -- 27
2019-07-19 16:00:00 33.9 14 Noroeste 32 Oeste 0 -- -- 27
2019-07-19 15:00:00 33.4 13 Oeste 25 Sudoeste 0 -- -- 24
2019-07-19 14:00:00 32.3 9 Sudoeste 22 Oeste 0 -- -- 27
2019-07-19 13:00:00 30.8 7 Sudoeste 17 Sur 0 -- -- 28
2019-07-19 12:00:00 28.7 6 Este 15 Este 0 -- -- 35
2019-07-19 11:00:00 24.2 6 Norte 14 Nordeste 0 -- -- 48
2019-07-19 10:00:00 20.1 5 Nordeste 11 Nordeste 0 -- -- 57
2019-07-19 09:00:00 16.9 5 Este 10 Este 0 -- -- 68
2019-07-19 08:00:00 12.3 2 Norte 5 Noroeste 0 -- -- 86
2019-07-19 07:00:00 11.8 3 Nordeste 6 Nordeste 0 -- -- 82
2019-07-19 06:00:00 13.2 3 Norte 8 Este 0 -- -- 78
2019-07-19 05:00:00 14.2 6 Nordeste 14 Nordeste 0 -- -- 74
2019-07-19 04:00:00 14.5 6 Nordeste 12 Este 0 -- -- 76
2019-07-19 03:00:00 15.6 7 Este 19 Nordeste 0 -- -- 72
2019-07-19 02:00:00 16.4 8 Nordeste 26 Este 0 -- -- 71
2019-07-19 01:00:00 17.6 14 Este 25 Este 0 -- -- 68
2019-07-19 00:00:00 18.5 10 Nordeste 26 Nordeste 0 -- -- 66